Time;durP1;ratioP1;P1;durP2;ratioP2;P2;SDS_P1;SDS_P2;PMS_P1;PMS_P2;Temp;Humidity;BMP_temperature;BMP_pressure;BME280_temperature;BME280_humidity;BME280_pressure;Samples;Min_cycle;Max_cycle;Signal;HPM_P1;HPM_P2
2022/06/08 00:01:31;;;;;;;19.83;10.70;;;;;;;17.01;67.46;100526.47;4961907;28;120089;-80
2022/06/08 00:03:59;;;;;;;19.13;9.63;;;;;;;17.00;67.60;100516.66;4977817;28;121452;-78
2022/06/08 00:06:25;;;;;;;24.88;10.45;;;;;;;17.02;67.51;100516.91;4992383;28;119755;-79
2022/06/08 00:08:51;;;;;;;19.88;10.15;;;;;;;17.01;67.71;100527.22;4983324;28;119439;-80
2022/06/08 00:11:18;;;;;;;16.33;9.23;;;;;;;17.00;67.65;100520.19;4977448;28;119406;-78
2022/06/08 00:13:47;;;;;;;19.88;9.35;;;;;;;16.99;67.38;100515.13;4979332;28;119549;-80
2022/06/08 00:16:13;;;;;;;16.25;8.50;;;;;;;16.92;67.30;100510.84;4985450;28;119607;-79
2022/06/08 00:18:40;;;;;;;17.55;8.43;;;;;;;16.94;67.27;100516.63;4984869;28;121650;-79
2022/06/08 00:21:07;;;;;;;19.23;8.70;;;;;;;16.98;67.17;100514.38;4993285;28;119423;-79
2022/06/08 00:23:34;;;;;;;16.88;9.10;;;;;;;16.97;66.93;100517.66;4988334;28;119461;-79
2022/06/08 00:26:00;;;;;;;17.40;8.15;;;;;;;16.92;66.88;100516.38;4994847;28;119833;-80
2022/06/08 00:28:25;;;;;;;14.65;8.20;;;;;;;16.95;66.87;100511.84;4979443;28;119872;-79
2022/06/08 00:30:51;;;;;;;15.82;8.20;;;;;;;16.90;67.13;100507.81;4989436;28;120549;-80
2022/06/08 00:33:17;;;;;;;16.00;7.72;;;;;;;16.89;66.19;100506.28;4969665;28;119555;-80
2022/06/08 00:35:43;;;;;;;13.07;7.90;;;;;;;16.92;66.52;100513.63;4958268;28;122007;-79
2022/06/08 00:38:09;;;;;;;17.38;8.90;;;;;;;16.94;66.47;100515.88;4976026;28;119965;-79
2022/06/08 00:40:47;;;;;;;17.58;8.45;;;;;;;16.93;66.85;100511.59;4976185;28;119734;-80
2022/06/08 00:43:13;;;;;;;14.48;8.23;;;;;;;16.89;66.76;100506.28;4977141;28;119805;-79
2022/06/08 00:45:39;;;;;;;15.70;8.15;;;;;;;16.91;66.89;100503.78;4959056;28;123450;-79
2022/06/08 00:48:06;;;;;;;17.65;8.57;;;;;;;16.92;66.52;100499.00;4982289;28;119722;-79
2022/06/08 00:50:49;;;;;;;17.65;8.50;;;;;;;16.93;66.81;100504.03;4978694;28;120254;-80
2022/06/08 00:53:27;;;;;;;13.90;8.07;;;;;;;16.86;66.79;100493.44;4978971;28;119619;-79
2022/06/08 00:55:53;;;;;;;15.15;7.45;;;;;;;16.93;67.09;100497.75;4979068;28;119707;-79
2022/06/08 00:58:24;;;;;;;17.20;7.60;;;;;;;16.92;67.06;100499.75;4976893;28;119538;-80
2022/06/08 01:00:51;;;;;;;15.20;8.43;;;;;;;16.94;67.00;100502.78;4961293;28;119875;-79
2022/06/08 01:03:19;;;;;;;21.30;9.48;;;;;;;16.95;67.06;100498.75;4962476;28;119640;-79
2022/06/08 01:06:02;;;;;;;21.50;8.88;;;;;;;16.95;66.35;100500.78;4976941;28;121339;-79
2022/06/08 01:08:37;;;;;;;18.58;8.85;;;;;;;16.94;66.56;100494.47;4979479;28;119614;-79
2022/06/08 01:11:09;;;;;;;19.98;10.32;;;;;;;16.91;66.72;100501.00;4964541;28;119544;-79
2022/06/08 01:13:38;;;;;;;23.83;9.85;;;;;;;16.88;66.95;100497.22;4960840;28;119735;-79
2022/06/08 01:16:10;;;;;;;16.13;9.30;;;;;;;16.83;66.70;100492.44;4961660;28;119979;-79
2022/06/08 01:18:36;;;;;;;21.98;9.98;;;;;;;16.87;67.08;100504.03;4977273;28;119399;-79
2022/06/08 01:21:20;;;;;;;18.85;10.00;;;;;;;16.88;66.48;100493.69;4960631;28;119601;-79
2022/06/08 01:24:00;;;;;;;20.70;9.93;;;;;;;16.86;67.10;100496.97;4981959;28;121912;-79
2022/06/08 01:27:05;;;;;;;21.50;10.07;;;;;;;16.86;66.94;100505.28;4988909;28;119794;-80
2022/06/08 01:29:46;;;;;;;20.48;10.07;;;;;;;16.87;66.81;100494.97;4979491;28;119494;-79
2022/06/08 01:32:57;;;;;;;22.67;10.48;;;;;;;16.86;66.70;100496.22;4997249;28;119441;-80
2022/06/08 01:35:59;;;;;;;22.17;11.60;;;;;;;16.83;66.84;100492.44;4962426;28;120433;-79
2022/06/08 01:38:50;;;;;;;22.33;12.10;;;;;;;16.83;66.45;100497.22;4967155;28;119862;-79
2022/06/08 01:41:37;;;;;;;25.23;11.90;;;;;;;16.80;66.52;100489.91;4996555;28;119348;-79
2022/06/08 01:44:27;;;;;;;23.23;11.40;;;;;;;16.79;66.70;100494.66;4997559;28;119547;-77
2022/06/08 01:47:06;;;;;;;22.13;10.85;;;;;;;16.80;66.68;100492.69;4980576;28;119481;-80
2022/06/08 01:49:54;;;;;;;18.58;10.02;;;;;;;16.72;66.80;100481.31;4980094;28;119928;-79
2022/06/08 01:52:30;;;;;;;16.65;8.63;;;;;;;16.77;66.75;100488.09;4998601;28;119443;-79
2022/06/08 01:55:07;;;;;;;20.15;9.02;;;;;;;16.78;66.67;100484.84;4997054;28;119505;-79
2022/06/08 01:57:39;;;;;;;17.10;8.05;;;;;;;16.76;66.71;100476.28;4996134;28;119631;-80
2022/06/08 02:00:05;;;;;;;14.43;7.03;;;;;;;16.75;66.46;100485.84;4960873;28;119893;-79
2022/06/08 02:03:00;;;;;;;15.75;7.30;;;;;;;16.73;66.33;100479.28;4976970;28;120227;-80
2022/06/08 02:05:31;;;;;;;17.42;7.10;;;;;;;16.75;66.00;100485.09;4977504;28;119834;-79
2022/06/08 02:08:33;;;;;;;14.55;6.93;;;;;;;16.72;65.70;100486.09;4976949;28;119345;-79
2022/06/08 02:11:19;;;;;;;15.50;7.15;;;;;;;16.68;66.01;100480.03;4956683;28;119312;-79
2022/06/08 02:14:00;;;;;;;18.42;6.88;;;;;;;16.67;66.26;100481.28;4960202;28;119465;-79
2022/06/08 02:16:39;;;;;;;20.48;7.00;;;;;;;16.66;65.69;100486.06;4977228;28;119403;-79
2022/06/08 02:19:34;;;;;;;16.70;6.80;;;;;;;16.66;65.89;100482.50;4995565;28;119851;-79
2022/06/08 02:22:12;;;;;;;13.90;6.72;;;;;;;16.64;65.76;100485.03;4979703;28;119944;-79
2022/06/08 02:24:49;;;;;;;18.13;6.55;;;;;;;16.66;66.32;100482.50;4993390;28;119534;-79
2022/06/08 02:27:40;;;;;;;21.52;7.43;;;;;;;16.66;66.10;100486.06;4996848;28;119746;-79
2022/06/08 02:30:09;;;;;;;14.20;6.70;;;;;;;16.67;66.30;100484.06;4976666;28;119812;-79
2022/06/08 02:35:50;;;;;;;15.00;6.70;;;;;;;16.65;66.31;100490.06;4974235;28;119423;-79
2022/06/08 02:38:20;;;;;;;16.35;6.57;;;;;;;16.66;66.53;100482.50;4956726;28;120748;-79
2022/06/08 02:40:54;;;;;;;20.70;7.55;;;;;;;16.66;66.40;100476.97;4973524;28;120518;-79
2022/06/08 02:43:30;;;;;;;19.67;6.50;;;;;;;16.68;66.21;100477.25;4956601;28;120045;-78
2022/06/08 02:46:06;;;;;;;16.95;6.47;;;;;;;16.67;66.41;100476.50;4977766;28;119926;-79
2022/06/08 02:48:33;;;;;;;14.20;6.53;;;;;;;16.64;66.40;100471.94;4982334;28;119891;-79
2022/06/08 02:50:59;;;;;;;18.80;6.93;;;;;;;16.66;66.50;100465.88;4980076;28;119819;-79
2022/06/08 02:54:02;;;;;;;19.90;6.50;;;;;;;16.64;66.67;100468.41;4996141;28;120251;-79
2022/06/08 02:56:45;;;;;;;18.08;6.63;;;;;;;16.66;66.47;100475.00;4996569;28;119985;-79
2022/06/08 02:59:19;;;;;;;18.40;6.40;;;;;;;16.69;66.51;100479.53;4996677;28;119548;-79
2022/06/08 03:02:08;;;;;;;16.95;6.43;;;;;;;16.68;66.75;100468.94;4996466;28;119894;-80
2022/06/08 03:04:57;;;;;;;20.75;7.43;;;;;;;16.67;66.58;100470.97;4996144;28;119557;-80
2022/06/08 03:07:41;;;;;;;18.10;7.35;;;;;;;16.66;66.80;100469.44;4979683;28;120430;-79
2022/06/08 03:10:09;;;;;;;;;;;;;;;16.64;66.74;100466.38;5000127;28;119409;-79
2022/06/08 03:12:42;;;;;;;18.48;7.65;;;;;;;16.67;66.91;100467.44;4996037;28;119316;-79
2022/06/08 03:15:10;;;;;;;19.83;8.05;;;;;;;16.68;67.04;100472.47;4995093;28;121655;-80
2022/06/08 03:17:38;;;;;;;18.85;8.55;;;;;;;16.69;67.08;100473.22;4994857;28;119764;-78
2022/06/08 03:20:08;;;;;;;19.15;8.65;;;;;;;16.69;67.29;100471.22;4993739;28;120195;-78
2022/06/08 03:22:35;;;;;;;18.52;8.80;;;;;;;16.74;67.21;100478.03;4973445;28;119492;-78
2022/06/08 03:25:02;;;;;;;23.10;9.60;;;;;;;16.72;67.16;100475.00;4973426;28;119955;-80
2022/06/08 03:27:27;;;;;;;22.88;9.32;;;;;;;16.75;67.23;100474.75;4974868;28;119514;-78
2022/06/08 03:29:56;;;;;;;20.58;9.75;;;;;;;16.78;66.95;100473.75;4980915;28;119756;-79
2022/06/08 03:32:25;;;;;;;16.77;9.20;;;;;;;16.77;67.02;100477.03;4997650;28;120591;-78
2022/06/08 03:34:53;;;;;;;18.30;9.88;;;;;;;16.79;66.78;100483.59;4994880;28;120213;-79
2022/06/08 03:37:22;;;;;;;17.58;9.20;;;;;;;16.79;66.59;100482.81;4995517;28;119422;-79
2022/06/08 03:39:52;;;;;;;20.15;9.52;;;;;;;16.77;66.54;100477.03;4979326;28;120440;-79
2022/06/08 03:42:18;;;;;;;20.38;8.65;;;;;;;16.78;66.43;100487.59;4984132;28;120882;-79
2022/06/08 03:44:47;;;;;;;15.00;7.97;;;;;;;16.78;66.67;100490.38;4976349;28;119636;-79
2022/06/08 03:47:18;;;;;;;14.98;8.48;;;;;;;16.74;66.31;100484.31;4975503;28;119438;-80
2022/06/08 03:49:48;;;;;;;;;;;;;;;16.75;66.45;100490.63;4975119;28;119736;-79
2022/06/08 03:52:18;;;;;;;22.17;8.60;;;;;;;16.76;66.77;100487.34;4975455;28;119497;-79
2022/06/08 03:54:48;;;;;;;14.38;8.00;;;;;;;16.81;66.72;100494.19;4978935;28;120056;-79
2022/06/08 03:57:16;;;;;;;17.05;8.07;;;;;;;16.80;66.78;100503.75;4975167;28;119487;-78
2022/06/08 03:59:45;;;;;;;12.23;6.97;;;;;;;16.78;66.48;100492.38;4975586;28;119780;-79
2022/06/08 04:02:11;;;;;;;12.50;6.55;;;;;;;16.78;66.33;100492.38;4975107;28;119321;-78
2022/06/08 04:04:39;;;;;;;12.07;6.55;;;;;;;16.70;66.13;100483.81;4974093;28;120378;-79
2022/06/08 04:07:10;;;;;;;12.95;6.65;;;;;;;16.73;66.06;100499.44;4976986;28;119329;-78
2022/06/08 04:09:45;;;;;;;12.93;6.47;;;;;;;16.78;66.29;100500.69;4958615;28;122262;-79
2022/06/08 04:12:12;;;;;;;14.80;6.30;;;;;;;16.78;66.36;100507.00;4958627;28;118932;-79
2022/06/08 04:14:38;;;;;;;14.43;6.95;;;;;;;16.78;66.62;100503.47;4961963;28;119835;-79
2022/06/08 04:17:08;;;;;;;12.15;7.38;;;;;;;16.79;66.91;100502.97;4975459;28;119584;-79
2022/06/08 04:19:35;;;;;;;14.55;7.07;;;;;;;16.81;67.37;100492.19;4958740;28;120452;-80
2022/06/08 04:22:04;;;;;;;15.93;7.75;;;;;;;16.86;67.04;100502.50;4942106;28;122050;-79
2022/06/08 04:24:33;;;;;;;14.57;7.53;;;;;;;16.88;67.15;100505.53;4958989;28;119343;-80
2022/06/08 04:27:00;;;;;;;15.00;7.57;;;;;;;16.91;67.20;100495.47;4975399;28;119728;-80
2022/06/08 04:29:31;;;;;;;16.25;8.65;;;;;;;16.93;67.11;100497.75;4959551;28;119467;-79
2022/06/08 04:32:01;;;;;;;22.77;9.50;;;;;;;16.94;66.73;100497.25;4958646;28;119628;-78
2022/06/08 04:34:28;;;;;;;20.27;9.18;;;;;;;16.94;67.17;100494.47;4974710;28;119803;-78
2022/06/08 04:36:54;;;;;;;18.63;10.30;;;;;;;16.95;67.39;100495.97;4978449;28;120120;-78
2022/06/08 04:39:25;;;;;;;21.13;10.07;;;;;;;16.97;67.43;100510.09;4959292;28;119502;-79
2022/06/08 04:41:55;;;;;;;17.40;9.65;;;;;;;16.98;67.31;100497.75;4957568;28;120947;-79
2022/06/08 04:44:25;;;;;;;17.55;9.57;;;;;;;16.96;67.29;100494.72;4958833;28;119721;-79
2022/06/08 04:46:51;;;;;;;15.07;9.35;;;;;;;17.01;66.99;100496.00;4974104;28;119463;-79
2022/06/08 04:49:20;;;;;;;19.92;9.20;;;;;;;17.01;66.75;100499.53;4974086;28;120620;-80
2022/06/08 04:51:48;;;;;;;17.20;8.65;;;;;;;16.96;66.86;100486.41;4974892;28;119411;-78
2022/06/08 04:54:16;;;;;;;19.73;8.38;;;;;;;16.99;67.03;100495.75;4958144;28;120112;-79
2022/06/08 04:56:43;;;;;;;14.68;8.50;;;;;;;17.02;66.77;100497.50;4975244;28;119380;-78
2022/06/08 04:59:10;;;;;;;17.85;8.63;;;;;;;17.02;66.68;100486.44;4980214;28;119938;-79
2022/06/08 05:01:39;;;;;;;15.93;8.27;;;;;;;17.04;66.95;100489.47;4977135;28;120056;-79
2022/06/08 05:04:08;;;;;;;15.32;8.50;;;;;;;17.06;66.93;100487.72;4961091;28;119777;-78
2022/06/08 05:06:34;;;;;;;23.30;8.25;;;;;;;17.08;66.71;100493.53;4961355;28;120901;-79
2022/06/08 05:09:00;;;;;;;14.93;7.88;;;;;;;17.08;66.37;100479.66;4977376;28;120076;-79
2022/06/08 05:11:27;;;;;;;17.23;8.43;;;;;;;17.08;66.71;100485.22;4962134;28;119442;-79
2022/06/08 05:13:54;;;;;;;16.35;8.82;;;;;;;17.13;66.59;100492.00;4976685;28;121821;-79
2022/06/08 05:16:20;;;;;;;15.32;8.32;;;;;;;17.15;66.38;100490.25;4978043;28;119447;-79
2022/06/08 05:18:50;;;;;;;13.05;8.45;;;;;;;17.15;66.55;100493.03;4978076;28;119976;-79
2022/06/08 05:21:19;;;;;;;13.35;7.95;;;;;;;17.17;66.34;100479.44;4981314;28;119406;-79
2022/06/08 05:23:48;;;;;;;16.00;8.20;;;;;;;17.18;66.13;100488.50;4976670;28;119851;-79
2022/06/08 05:26:17;;;;;;;17.60;8.25;;;;;;;17.18;66.20;100486.47;4977528;28;120671;-79
2022/06/08 05:28:44;;;;;;;19.67;8.32;;;;;;;17.17;65.89;100487.75;4976390;28;120037;-79
2022/06/08 05:31:11;;;;;;;18.30;7.95;;;;;;;17.19;66.02;100496.31;4977917;28;119408;-78
2022/06/08 05:33:40;;;;;;;14.40;8.55;;;;;;;17.21;66.29;100483.97;4977107;28;119855;-79
2022/06/08 05:36:17;;;;;;;13.88;8.02;;;;;;;17.19;66.10;100474.13;4959728;28;121742;-80
2022/06/08 05:38:45;;;;;;;14.88;8.20;;;;;;;17.27;66.50;100484.72;4977238;28;119625;-79
2022/06/08 05:41:11;;;;;;;16.00;8.68;;;;;;;17.30;66.52;100475.44;4960600;28;120989;-78
2022/06/08 05:43:38;;;;;;;13.38;8.00;;;;;;;17.36;66.54;100481.72;4980205;28;120442;-79
2022/06/08 05:46:04;;;;;;;14.70;7.38;;;;;;;17.38;66.67;100474.41;4980356;28;119312;-79
2022/06/08 05:48:34;;;;;;;11.90;7.80;;;;;;;17.49;66.78;100479.22;4999621;28;121309;-79
2022/06/08 05:51:04;;;;;;;13.43;7.80;;;;;;;17.54;67.05;100483.25;5016292;28;119763;-79
2022/06/08 05:53:30;;;;;;;14.30;7.78;;;;;;;17.59;66.60;100488.81;5000147;28;119725;-79
2022/06/08 05:55:56;;;;;;;16.38;7.55;;;;;;;17.63;66.79;100486.53;5016599;28;119577;-80
2022/06/08 05:58:24;;;;;;;12.30;7.55;;;;;;;17.60;66.14;100479.22;5000242;28;119341;-79
2022/06/08 06:00:51;;;;;;;9.77;7.05;;;;;;;17.66;66.39;100479.97;5016482;28;119468;-79
2022/06/08 06:03:18;;;;;;;11.07;7.55;;;;;;;17.71;66.33;100479.25;5015236;28;119937;-79
2022/06/08 06:05:45;;;;;;;12.38;6.82;;;;;;;17.76;65.65;100484.06;5003260;28;119999;-79
2022/06/08 06:08:13;;;;;;;14.13;7.30;;;;;;;17.77;65.71;100484.81;4998904;28;122472;-79
2022/06/08 06:10:52;;;;;;;11.05;6.93;;;;;;;17.79;65.43;100485.06;5017708;27;119697;-79
2022/06/08 06:13:26;;;;;;;12.80;7.57;;;;;;;17.74;65.52;100481.03;5015688;28;119560;-79
2022/06/08 06:15:57;;;;;;;13.35;8.05;;;;;;;17.77;65.92;100482.03;5015019;28;120160;-79
2022/06/08 06:18:23;;;;;;;13.95;7.63;;;;;;;17.78;65.72;100486.31;5016291;28;119530;-79
2022/06/08 06:21:00;;;;;;;12.80;7.07;;;;;;;17.79;65.72;100480.28;5015894;28;119416;-79
2022/06/08 06:23:42;;;;;;;14.40;7.60;;;;;;;17.81;66.64;100481.78;4998954;28;122075;-79
2022/06/08 06:26:38;;;;;;;13.63;7.13;;;;;;;17.83;66.07;100493.13;5020067;28;119665;-79
2022/06/08 06:29:10;;;;;;;13.68;6.68;;;;;;;17.87;65.92;100490.84;4998673;28;120001;-79
2022/06/08 06:32:00;;;;;;;13.88;6.78;;;;;;;17.86;66.19;100501.19;4975743;28;119333;-79
2022/06/08 06:34:29;;;;;;;15.30;7.50;;;;;;;17.88;66.01;100495.91;4974815;28;119470;-79
2022/06/08 06:36:58;;;;;;;14.23;7.15;;;;;;;17.88;65.75;100497.91;4975118;28;119447;-79
2022/06/08 06:39:26;;;;;;;11.90;6.93;;;;;;;17.88;66.12;100501.44;4942664;28;119758;-80
2022/06/08 06:41:59;;;;;;;13.63;7.47;;;;;;;17.90;66.51;100493.38;4959442;28;119442;-78
2022/06/08 06:44:28;;;;;;;11.75;6.50;;;;;;;17.93;66.55;100495.13;4997221;28;121991;-78
2022/06/08 06:47:17;;;;;;;12.57;6.82;;;;;;;17.99;66.52;100497.91;4994327;28;119514;-79
2022/06/08 06:49:56;;;;;;;14.32;7.18;;;;;;;18.01;66.69;100489.84;4983832;28;120190;-79
2022/06/08 06:52:23;;;;;;;13.40;7.13;;;;;;;18.04;65.79;100497.91;4962309;28;119635;-78
2022/06/08 06:54:52;;;;;;;12.13;6.53;;;;;;;18.00;65.38;100491.09;4995421;28;119331;-79
2022/06/08 06:57:19;;;;;;;14.38;6.63;;;;;;;18.05;65.17;100495.88;4995454;28;120133;-80
2022/06/08 06:59:45;;;;;;;12.65;6.70;;;;;;;18.07;65.79;100498.91;4995693;28;119518;-79
2022/06/08 07:02:16;;;;;;;13.50;7.95;;;;;;;18.09;66.05;100502.69;4995125;28;119900;-78
2022/06/08 07:04:43;;;;;;;13.90;7.93;;;;;;;18.11;66.34;100504.97;4994733;28;119529;-78
2022/06/08 07:07:09;;;;;;;15.65;9.13;;;;;;;18.10;66.16;100481.25;4994632;28;119712;-78
2022/06/08 07:09:36;;;;;;;17.25;9.13;;;;;;;18.14;65.76;100492.84;4994426;28;119993;-79
2022/06/08 07:12:02;;;;;;;14.40;8.75;;;;;;;18.23;65.43;100498.13;4997767;28;119864;-79
2022/06/08 07:14:35;;;;;;;16.65;8.02;;;;;;;18.21;65.92;100495.09;4994489;28;119492;-79
2022/06/08 07:17:08;;;;;;;14.40;8.57;;;;;;;18.25;65.20;100497.63;4994009;28;119527;-79
2022/06/08 07:19:38;;;;;;;15.82;8.43;;;;;;;18.27;65.66;100481.22;4995137;28;119304;-78
2022/06/08 07:22:05;;;;;;;17.23;8.88;;;;;;;18.36;65.97;100490.00;4977651;28;122912;-79
2022/06/08 07:24:33;;;;;;;15.98;8.73;;;;;;;18.43;65.79;100483.19;4994308;28;119871;-79
2022/06/08 07:27:01;;;;;;;12.55;8.05;;;;;;;18.51;65.45;100486.94;4994497;28;119981;-79
2022/06/08 07:29:27;;;;;;;14.70;9.30;;;;;;;18.58;65.55;100485.66;4982889;28;119806;-79
2022/06/08 07:31:52;;;;;;;17.02;9.00;;;;;;;18.69;65.23;100488.41;4973637;28;120379;-79
2022/06/08 07:34:18;;;;;;;15.15;7.85;;;;;;;18.74;64.79;100471.00;4961280;28;119475;-79
2022/06/08 07:36:45;;;;;;;13.75;8.60;;;;;;;18.84;64.70;100474.97;4973848;28;119359;-79
2022/06/08 07:39:13;;;;;;;12.57;7.82;;;;;;;18.85;64.72;100465.38;4957204;28;119710;-79
2022/06/08 07:41:39;;;;;;;14.43;8.63;;;;;;;18.98;64.84;100479.47;4972585;28;120155;-80
2022/06/08 07:44:05;;;;;;;18.52;9.57;;;;;;;19.03;64.21;100486.25;4991320;28;119860;-79
2022/06/08 07:46:31;;;;;;;16.85;8.80;;;;;;;19.05;64.18;100489.25;4993646;28;120550;-79
2022/06/08 07:51:41;;;;;;;16.77;9.80;;;;;;;18.99;64.06;100478.19;4995084;28;119531;-79
2022/06/08 07:54:07;;;;;;;14.85;10.55;;;;;;;19.02;64.27;100482.72;4993387;28;119662;-79
2022/06/08 07:56:32;;;;;;;17.83;9.43;;;;;;;19.01;64.28;100481.19;4992832;28;121081;-79
2022/06/08 07:58:58;;;;;;;15.30;10.15;;;;;;;19.02;64.56;100487.50;4989235;28;119377;-80
2022/06/08 08:01:24;;;;;;;16.67;10.75;;;;;;;19.00;64.79;100487.28;4993379;28;120986;-79
2022/06/08 08:03:50;;;;;;;15.50;10.20;;;;;;;18.94;64.68;100484.53;4994352;28;120528;-79
2022/06/08 08:06:16;;;;;;;20.70;10.75;;;;;;;19.00;63.88;100496.38;4974936;28;120156;-78
2022/06/08 08:08:41;;;;;;;19.67;9.90;;;;;;;18.94;63.56;100500.47;4989894;28;120008;-79
2022/06/08 08:11:07;;;;;;;19.55;9.88;;;;;;;18.90;63.59;100499.94;4976350;28;120784;-80
2022/06/08 08:13:34;;;;;;;15.50;10.63;;;;;;;18.83;63.64;100495.69;4994454;28;119327;-80
2022/06/08 08:16:00;;;;;;;13.57;9.88;;;;;;;18.77;63.50;100499.78;4995737;28;119389;-78
2022/06/08 08:18:26;;;;;;;18.33;11.15;;;;;;;18.75;63.85;100494.72;4993101;28;119676;-79
2022/06/08 08:20:51;;;;;;;19.08;11.50;;;;;;;18.71;63.94;100497.03;4994506;28;119472;-78
2022/06/08 08:23:18;;;;;;;16.08;10.30;;;;;;;18.63;64.13;100487.69;4994045;28;120047;-79
2022/06/08 08:25:44;;;;;;;15.50;10.75;;;;;;;18.65;64.50;100487.94;4993621;28;119684;-80
2022/06/08 08:28:09;;;;;;;19.15;10.90;;;;;;;18.62;64.42;100491.69;4993228;28;121820;-79
2022/06/08 08:30:36;;;;;;;18.13;10.57;;;;;;;18.58;64.82;100485.66;4973499;28;119334;-79
2022/06/08 08:33:05;;;;;;;18.90;10.85;;;;;;;18.62;65.01;100492.50;4974650;28;119516;-79
2022/06/08 08:35:30;;;;;;;20.70;10.98;;;;;;;18.62;64.78;100498.03;4977745;28;119433;-78
2022/06/08 08:37:57;;;;;;;14.57;9.55;;;;;;;18.59;64.66;100496.25;4991564;28;119494;-80
2022/06/08 08:40:46;;;;;;;18.23;10.18;;;;;;;18.62;64.18;100492.50;4989256;28;119647;-79
2022/06/08 08:43:17;;;;;;;19.02;10.20;;;;;;;18.62;64.24;100494.47;4996172;28;119458;-79
2022/06/08 08:45:59;;;;;;;17.80;10.05;;;;;;;18.58;64.01;100488.44;4997081;28;119771;-79
2022/06/08 08:48:37;;;;;;;15.27;9.57;;;;;;;18.62;63.90;100497.25;4996290;28;119600;-78
2022/06/08 08:51:38;;;;;;;14.18;9.75;;;;;;;18.62;64.62;100486.16;4986393;28;119798;-79
2022/06/08 08:54:35;;;;;;;19.23;10.35;;;;;;;18.73;64.89;100482.63;4992766;28;120014;-79
2022/06/08 08:57:18;;;;;;;16.42;9.38;;;;;;;18.80;64.49;100482.81;4988007;28;119544;-79
2022/06/08 08:59:46;;;;;;;18.20;10.90;;;;;;;18.86;65.06;100485.56;4997433;28;119538;-79
2022/06/08 09:03:14;;;;;;;16.92;10.75;;;;;;;18.92;64.87;100477.94;5000679;28;119752;-79
2022/06/08 09:05:02;;;;;;;15.77;10.10;;;;;;;18.94;64.89;100467.84;4996852;28;119817;-80
2022/06/08 09:07:29;;;;;;;16.13;11.23;;;;;;;19.04;63.96;100467.53;4997113;28;120158;-79
2022/06/08 09:09:55;;;;;;;19.92;11.93;;;;;;;19.11;64.33;100469.78;4995962;28;119417;-79
2022/06/08 09:12:21;;;;;;;19.77;11.55;;;;;;;19.18;64.32;100469.25;4996854;28;119543;-79
2022/06/08 09:14:58;;;;;;;16.33;11.35;;;;;;;19.23;63.77;100454.53;4996871;28;119587;-79
2022/06/08 09:17:37;;;;;;;23.92;12.65;;;;;;;19.33;63.63;100455.72;4995999;28;119893;-80
2022/06/08 09:20:20;;;;;;;19.00;12.95;;;;;;;19.41;63.06;100448.34;4994631;28;119813;-79
2022/06/08 09:22:52;;;;;;;21.40;12.10;;;;;;;19.45;63.29;100446.03;4996624;28;119702;-79
2022/06/08 09:25:34;;;;;;;18.33;12.85;;;;;;;19.48;63.43;100444.25;4999592;28;119366;-79
2022/06/08 09:28:01;;;;;;;20.60;12.25;;;;;;;19.49;62.99;100449.28;4996985;28;119870;-79
2022/06/08 09:30:28;;;;;;;18.98;12.32;;;;;;;19.52;63.50;100450.28;4988079;28;119447;-78
2022/06/08 09:32:59;;;;;;;18.23;12.43;;;;;;;19.56;63.88;100445.97;4994186;28;119469;-80
2022/06/08 09:35:34;;;;;;;24.25;11.98;;;;;;;19.61;63.38;100445.16;4995634;27;119470;-80
2022/06/08 09:38:13;;;;;;;20.60;11.98;;;;;;;19.67;62.79;100447.16;4994727;28;119984;-78
2022/06/08 09:41:09;;;;;;;20.38;12.32;;;;;;;19.70;62.72;100435.75;4995863;28;120247;-80
2022/06/08 09:43:38;;;;;;;18.08;11.27;;;;;;;19.83;62.21;100443.44;4975760;28;119455;-79
2022/06/08 09:46:08;;;;;;;18.63;12.73;;;;;;;19.89;62.63;100431.00;4977506;28;119419;-80
2022/06/08 09:51:55;;;;;;;22.55;12.38;;;;;;;20.04;62.60;100427.81;4994415;28;120456;-79
2022/06/08 09:54:40;;;;;;;20.45;11.48;;;;;;;20.12;61.94;100420.41;4994021;28;119552;-79
2022/06/08 09:57:36;;;;;;;18.80;12.52;;;;;;;20.21;62.10;100422.06;4984495;28;119853;-79
2022/06/08 10:00:08;;;;;;;20.83;12.75;;;;;;;20.29;61.81;100425.75;4957991;28;122184;-79
2022/06/08 10:02:46;;;;;;;20.40;12.73;;;;;;;20.32;61.68;100418.38;4992597;28;120628;-79
2022/06/08 10:05:12;;;;;;;21.33;13.33;;;;;;;20.34;61.93;100415.81;4995581;28;119543;-78
2022/06/08 10:07:59;;;;;;;17.33;13.48;;;;;;;20.40;62.33;100410.97;4995109;28;119200;-79
2022/06/08 10:10:37;;;;;;;21.02;14.48;;;;;;;20.50;61.43;100410.09;4993071;28;120770;-79
2022/06/08 10:13:16;;;;;;;16.23;11.82;;;;;;;20.56;61.32;100418.34;4998432;28;119667;-79
2022/06/08 10:15:51;;;;;;;18.45;13.35;;;;;;;20.59;60.77;100420.13;4993822;28;119536;-78
2022/06/08 10:18:29;;;;;;;19.40;13.80;;;;;;;20.58;60.81;100403.91;4976942;28;119616;-78
2022/06/08 10:21:00;;;;;;;18.27;14.10;;;;;;;20.62;60.75;100410.72;4973534;28;119810;-79
2022/06/08 10:23:45;;;;;;;18.02;13.13;;;;;;;20.69;60.22;100414.91;4978381;28;119555;-78
2022/06/08 10:26:21;;;;;;;15.90;13.10;;;;;;;20.75;59.86;100416.34;4977474;28;120293;-79
2022/06/08 10:29:02;;;;;;;19.30;12.90;;;;;;;20.81;60.08;100421.84;4979428;28;119495;-79
2022/06/08 10:31:48;;;;;;;18.83;14.77;;;;;;;20.81;60.10;100424.63;4992935;28;119623;-78
2022/06/08 10:34:22;;;;;;;18.25;14.45;;;;;;;20.79;59.86;100416.03;4990924;28;119696;-79
2022/06/08 10:36:54;;;;;;;17.40;11.50;;;;;;;20.77;59.75;100419.34;4976291;28;120930;-79
2022/06/08 10:39:24;;;;;;;20.00;15.73;;;;;;;20.76;59.74;100415.06;4994873;28;119720;-79
2022/06/08 10:45:23;;;;;;;16.73;13.00;;;;;;;20.74;59.76;100423.19;4981905;28;119459;-79
2022/06/08 10:47:57;;;;;;;19.38;12.52;;;;;;;20.75;60.07;100424.69;4986960;28;119730;-78
2022/06/08 10:50:34;;;;;;;;;;;;;;;20.75;60.27;100430.28;4990708;28;119375;-78
2022/06/08 10:56:29;;;;;;;18.17;11.77;;;;;;;20.68;60.35;100428.09;4990656;28;119633;-79
2022/06/08 10:59:03;;;;;;;14.90;11.30;;;;;;;20.66;60.19;100425.09;4980260;28;121293;-79
2022/06/08 11:01:42;;;;;;;19.73;12.48;;;;;;;20.64;60.09;100441.59;4993077;28;120198;-79
2022/06/08 11:04:27;;;;;;;15.63;12.05;;;;;;;20.59;59.83;100425.69;4990987;28;120178;-79
2022/06/08 11:07:02;;;;;;;16.95;12.60;;;;;;;20.56;60.58;100435.06;4990952;28;122704;-79
2022/06/08 11:09:33;;;;;;;18.05;14.05;;;;;;;20.57;60.26;100435.84;4984037;28;119501;-77
2022/06/08 11:12:04;;;;;;;16.65;12.60;;;;;;;20.58;60.93;100435.31;4968451;28;121099;-79
2022/06/08 11:14:56;;;;;;;18.77;13.60;;;;;;;20.60;60.79;100423.66;4991577;28;122884;-79
2022/06/08 11:17:33;;;;;;;19.52;14.63;;;;;;;20.73;61.04;100420.94;4992129;28;120188;-78
2022/06/08 11:20:12;;;;;;;17.23;14.68;;;;;;;20.80;60.83;100418.28;4993376;28;119717;-79
2022/06/08 11:23:00;;;;;;;22.90;16.25;;;;;;;20.84;60.54;100427.13;4994786;28;120037;-79
2022/06/08 11:25:46;;;;;;;20.48;15.10;;;;;;;20.87;60.32;100418.97;4983430;28;120711;-79
2022/06/08 11:28:35;;;;;;;16.75;13.43;;;;;;;20.90;59.96;100417.94;4981107;28;120161;-79
2022/06/08 11:31:04;;;;;;;18.98;15.35;;;;;;;20.93;60.04;100417.63;4963771;28;119805;-79
2022/06/08 11:33:50;;;;;;;19.77;15.13;;;;;;;20.93;59.17;100416.88;4975800;28;122308;-80
2022/06/08 11:36:29;;;;;;;21.80;15.20;;;;;;;20.98;60.21;100418.81;4992352;28;120165;-79
2022/06/08 11:38:57;;;;;;;18.75;14.55;;;;;;;21.02;59.27;100424.84;4982610;28;119357;-79
2022/06/08 11:41:28;;;;;;;19.25;13.35;;;;;;;21.00;59.10;100405.09;4977789;28;119481;-79
2022/06/08 11:43:55;;;;;;;18.38;11.77;;;;;;;21.09;59.06;100405.47;4992119;28;121958;-80
2022/06/08 11:46:36;;;;;;;19.35;12.95;;;;;;;21.10;58.43;100417.38;4996217;28;119904;-78
2022/06/08 11:49:04;;;;;;;20.90;12.68;;;;;;;21.10;59.72;100412.56;4991925;28;119812;-79